ADDS METAR Data INFO
IDs: Format: Raw Decoded Include TAF

Data at: 0314 UTC 20 Jul 2018

KAKH 200254Z AUTO 22003KT 10SM BKN065 OVC095 24/19 A3005 RMK AO2 SLP167 T02390194 53008
KAKH 200154Z AUTO VRB04KT 10SM SCT060 OVC095 26/19 A3004 RMK AO2 SLP164 T02560189
KAKH 200054Z AUTO 35004KT 10SM OVC080 26/18 A3003 RMK AO2 SLP160 T02610183
KAKH 192354Z AUTO 36005KT 10SM OVC080 27/18 A3002 RMK AO2 SLP158 T02670183 10300 20267 55000
KAKH 192254Z AUTO 35007KT 10SM OVC085 28/19 A3001 RMK AO2 SLP155 T02780189
KAKH 192154Z AUTO 35007KT 10SM BKN080 OVC100 28/18 A3002 RMK AO2 SLP157 T02780183
KAKH 192054Z AUTO 35006KT 10SM BKN075 OVC100 28/18 A3002 RMK AO2 SLP158 T02830183 58017
KAKH 191954Z AUTO 36007KT 10SM OVC095 29/19 A3004 RMK AO2 SLP165 T02890189
KAKH 191854Z AUTO 36004KT 10SM BKN075 BKN090 28/17 A3006 RMK AO2 SLP171 T02830167
KAKH 191754Z AUTO 02006KT 10SM OVC085 28/17 A3007 RMK AO2 SLP175 T02780172 10278 20239 58005
KAKH 191654Z AUTO 02006KT 10SM OVC075 27/17 A3008 RMK AO2 SLP178 T02670172
KAKH 191554Z AUTO 01005KT 10SM OVC075 25/17 A3009 RMK AO2 SLP183 T02500172
KAKH 191454Z AUTO 03004KT 10SM OVC075 26/17 A3009 RMK AO2 SLP182 T02560172 51012
KAKH 191354Z AUTO 04003KT 10SM OVC070 24/17 A3009 RMK AO2 SLP179 T02440172
KAKH 191254Z AUTO 03006KT 10SM BKN080 24/17 A3006 RMK AO2 SLP173 T02440167
KAKH 191154Z AUTO 06004KT 10SM OVC080 24/17 A3005 RMK AO2 SLP168 T02390167 10244 20228 53018
KAKH 191054Z AUTO 04006KT 10SM OVC075 24/17 A3003 RMK AO2 SLP161 T02390167
KAKH 190954Z AUTO VRB03KT 10SM SCT080 BKN110 23/18 A3001 RMK AO2 SLP154 T02330178
KAKH 190854Z AUTO 05006KT 10SM FEW075 SCT090 OVC110 24/19 A3000 RMK AO2 SLP149 T02390194 55001
KAKH 190754Z AUTO 07004KT 10SM OVC055 24/20 A2999 RMK AO2 SLP146 T02390200
KAKH 190654Z AUTO 08003KT 10SM BKN050 23/19 A2999 RMK AO2 SLP148 T02330194
KAKH 190554Z AUTO 04004KT 10SM CLR 24/19 A3000 RMK AO2 SLP150 T02390189 10306 20233 50009
KAKH 190454Z AUTO 00000KT 10SM FEW050 OVC080 26/18 A3001 RMK AO2 SLP152 T02560183 403440217
KAKH 190354Z AUTO 00000KT 10SM CLR 24/17 A2999 RMK AO2 SLP145 T02440172
KAKH 190254Z AUTO 00000KT 10SM CLR 24/18 A2997 RMK AO2 SLP141 T02440178 52014
KAKH 190154Z AUTO 06004KT 10SM BKN090 27/18 A2996 RMK AO2 SLP136 T02670178
KAKH 190054Z AUTO 00000KT 10SM CLR 25/18 A2995 RMK AO2 SLP132 T02500183
KAKH 182354Z AUTO 05003KT 10SM CLR 31/16 A2993 RMK AO2 SLP127 T03060161 10344 20306 53002
KAKH 182254Z AUTO 07004KT 10SM CLR 33/14 A2992 RMK AO2 SLP123 T03330144
KAKH 182154Z AUTO 06007KT 10SM CLR 34/14 A2992 RMK AO2 SLP123 T03390144
KAKH 182054Z AUTO 02006KT 10SM BKN070 34/15 A2993 RMK AO2 SLP124 T03390150 57014
KAKH 181954Z AUTO 36003KT 10SM SCT070 33/16 A2994 RMK AO2 SLP128 T03330161
KAKH 181854Z AUTO 00000KT 10SM CLR 33/16 A2996 RMK AO2 SLP135 T03330161
KAKH 181754Z AUTO VRB05KT 10SM CLR 32/17 A2997 RMK AO2 SLP139 T03220172 10333 20256 58014
KAKH 181654Z AUTO 07010KT 10SM CLR 32/17 A2999 RMK AO2 SLP146 T03220172
KAKH 181554Z AUTO 07007KT 10SM CLR 32/18 A3000 RMK AO2 SLP151 T03170178